Terminal Aerodrome Forecast
Issued by NWS

Home | Current Version | Previous Version | Text Only | Print | Product List | Glossary On
Versions: 1 2 3 4 5 6 7 8 9 10 11 12 13 14 15
000
FTUS46 KSEW 211120
TAFHQM
TAF
KHQM 211120Z 2112/2212 09012KT 5SM -RA BR BKN020 OVC040
     FM211400 12015G25KT 4SM -RA BR OVC015
     FM211800 12015G25KT 1 1/2SM RA BR OVC008
     FM212300 20025G38KT 3SM -RA BR OVC012=

USA.gov is the U.S. government's official web portal to all federal, state and local government web resources and services.